Time;durP1;ratioP1;P1;durP2;ratioP2;P2;SDS_P1;SDS_P2;PMS_P1;PMS_P2;Temp;Humidity;BMP_temperature;BMP_pressure;BME280_temperature;BME280_humidity;BME280_pressure;Samples;Min_cycle;Max_cycle;Signal;HPM_P1;HPM_P2
2022/10/20 00:01:28;;;;;;;13.32;6.13;;;8.50;99.90;;;;;;4973175;28;20065;-69
2022/10/20 00:03:54;;;;;;;13.75;6.20;;;8.50;99.90;;;;;;4972626;28;20050;-68
2022/10/20 00:06:24;;;;;;;14.05;5.75;;;8.50;99.90;;;;;;4973172;28;20041;-69
2022/10/20 00:08:50;;;;;;;9.85;5.25;;;8.50;99.90;;;;;;4973244;28;20073;-69
2022/10/20 00:11:18;;;;;;;12.32;6.55;;;8.50;99.90;;;;;;4973065;28;20074;-69
2022/10/20 00:13:45;;;;;;;12.57;6.38;;;8.40;99.90;;;;;;4971313;28;20054;-68
2022/10/20 00:16:11;;;;;;;12.18;6.32;;;8.40;99.90;;;;;;4971636;28;20524;-69
2022/10/20 00:18:37;;;;;;;12.13;5.60;;;8.40;99.90;;;;;;4972880;28;20090;-69
2022/10/20 00:21:22;;;;;;;10.77;6.20;;;8.40;99.90;;;;;;4972837;28;20130;-69
2022/10/20 00:23:48;;;;;;;9.35;6.30;;;8.40;99.90;;;;;;4972323;28;20093;-69
2022/10/20 00:26:17;;;;;;;12.70;6.40;;;8.30;99.90;;;;;;4971847;28;20038;-68
2022/10/20 00:28:42;;;;;;;9.57;6.38;;;8.40;99.90;;;;;;4972725;28;20126;-69
2022/10/20 00:31:08;;;;;;;10.50;6.07;;;8.40;99.90;;;;;;4972760;28;20079;-69
2022/10/20 00:33:35;;;;;;;13.48;5.43;;;8.30;99.90;;;;;;4972327;28;20131;-69
2022/10/20 00:36:02;;;;;;;7.72;5.72;;;8.30;99.90;;;;;;4972950;28;20050;-69
2022/10/20 00:38:28;;;;;;;11.73;6.20;;;8.30;99.90;;;;;;4972735;28;20414;-68
2022/10/20 00:40:53;;;;;;;9.95;6.15;;;8.20;99.90;;;;;;4973214;28;20039;-69
2022/10/20 00:43:19;;;;;;;12.57;6.03;;;8.20;99.90;;;;;;4976300;28;20567;-69
2022/10/20 00:45:53;;;;;;;7.97;5.05;;;8.20;99.90;;;;;;4976523;28;20097;-69
2022/10/20 00:48:26;;;;;;;13.18;5.45;;;8.20;99.90;;;;;;4976512;28;20122;-69
2022/10/20 00:50:54;;;;;;;13.35;6.07;;;8.10;99.90;;;;;;4976514;28;20548;-69
2022/10/20 00:53:23;;;;;;;9.05;5.85;;;8.20;99.90;;;;;;4976062;28;20050;-69
2022/10/20 00:55:50;;;;;;;9.55;5.45;;;8.10;99.90;;;;;;4976343;28;20112;-69
2022/10/20 00:58:17;;;;;;;9.35;6.40;;;8.10;99.90;;;;;;4976363;28;20034;-69
2022/10/20 01:00:44;;;;;;;9.00;6.40;;;8.10;99.90;;;;;;4976009;28;20583;-69
2022/10/20 01:03:15;;;;;;;11.20;5.65;;;8.10;99.90;;;;;;4975946;28;20049;-69
2022/10/20 01:05:41;;;;;;;8.82;6.50;;;8.10;99.90;;;;;;4976204;28;20525;-69
2022/10/20 01:08:06;;;;;;;11.75;5.80;;;8.00;99.90;;;;;;4976260;28;20070;-69
2022/10/20 01:10:46;;;;;;;10.20;5.25;;;8.10;99.90;;;;;;4976146;28;20560;-69
2022/10/20 01:13:24;;;;;;;7.38;5.57;;;8.10;99.90;;;;;;4975567;28;20118;-69
2022/10/20 01:16:03;;;;;;;10.88;5.70;;;8.00;99.90;;;;;;4976191;28;20398;-69
2022/10/20 01:18:45;;;;;;;10.30;5.82;;;8.10;99.90;;;;;;4975023;28;20039;-69
2022/10/20 01:21:31;;;;;;;13.10;6.03;;;8.10;99.90;;;;;;4974510;28;20053;-69
2022/10/20 01:24:23;;;;;;;7.57;5.22;;;8.00;99.90;;;;;;4975551;28;20509;-69
2022/10/20 01:27:09;;;;;;;11.18;5.80;;;7.90;99.90;;;;;;4975958;28;20041;-69
2022/10/20 01:29:38;;;;;;;9.25;5.75;;;7.90;99.90;;;;;;4975725;28;20039;-68
2022/10/20 01:32:27;;;;;;;11.65;5.72;;;7.80;99.90;;;;;;4975440;28;20053;-69
2022/10/20 01:35:09;;;;;;;13.98;5.93;;;7.90;99.90;;;;;;4973841;28;20051;-69
2022/10/20 01:37:52;;;;;;;12.25;6.72;;;7.90;99.90;;;;;;4975735;28;20579;-69
2022/10/20 01:40:37;;;;;;;11.35;5.72;;;7.80;99.90;;;;;;4958098;28;20424;-69
2022/10/20 01:43:07;;;;;;;9.38;5.68;;;7.80;99.90;;;;;;4957828;28;20463;-69
2022/10/20 01:45:35;;;;;;;14.10;7.07;;;7.70;99.90;;;;;;4975506;28;20039;-69
2022/10/20 01:48:04;;;;;;;10.80;6.10;;;7.70;99.90;;;;;;4974125;28;20097;-69
2022/10/20 01:50:33;;;;;;;8.70;5.78;;;7.70;99.90;;;;;;4974363;28;20047;-69
2022/10/20 01:52:59;;;;;;;15.27;6.45;;;7.80;99.90;;;;;;4972581;28;20082;-69
2022/10/20 01:55:25;;;;;;;10.95;5.78;;;7.70;99.90;;;;;;4974039;28;20039;-69
2022/10/20 01:58:05;;;;;;;9.52;6.05;;;7.70;99.90;;;;;;4974098;28;20105;-69
2022/10/20 02:00:35;;;;;;;7.93;5.47;;;7.60;99.90;;;;;;4975183;28;20475;-69
2022/10/20 02:03:13;;;;;;;13.35;7.38;;;7.80;99.90;;;;;;4974619;28;20042;-69
2022/10/20 02:06:10;;;;;;;9.88;5.78;;;7.70;99.90;;;;;;4975374;28;20065;-69
2022/10/20 02:08:44;;;;;;;11.23;6.70;;;7.70;99.90;;;;;;4975116;28;20031;-68
2022/10/20 02:11:27;;;;;;;18.08;7.10;;;7.70;99.90;;;;;;4974068;28;20122;-69
2022/10/20 02:13:55;;;;;;;13.35;6.85;;;7.70;99.90;;;;;;4973219;28;20101;-70
2022/10/20 02:16:54;;;;;;;11.43;5.93;;;7.50;99.90;;;;;;4974921;28;20042;-69
2022/10/20 02:19:23;;;;;;;10.35;5.57;;;7.70;99.90;;;;;;4973542;28;20053;-69
2022/10/20 02:21:51;;;;;;;8.77;6.30;;;7.60;99.90;;;;;;4973524;28;20047;-69
2022/10/20 02:24:20;;;;;;;10.27;6.10;;;7.70;99.90;;;;;;4974649;28;20050;-69
2022/10/20 02:26:46;;;;;;;12.23;7.07;;;7.60;99.90;;;;;;4974986;28;20061;-69
2022/10/20 02:29:20;;;;;;;9.38;6.30;;;7.70;99.90;;;;;;4973347;28;20500;-69
2022/10/20 02:31:46;;;;;;;15.48;6.32;;;7.50;99.90;;;;;;4973480;28;20043;-69
2022/10/20 02:34:12;;;;;;;11.35;6.47;;;7.70;99.90;;;;;;4974279;28;20054;-70
2022/10/20 02:36:40;;;;;;;10.65;6.07;;;7.60;99.90;;;;;;4973466;28;20042;-69
2022/10/20 02:39:06;;;;;;;8.98;5.82;;;7.60;99.90;;;;;;4974709;28;20050;-69
2022/10/20 02:41:32;;;;;;;13.05;5.93;;;7.70;99.90;;;;;;4973056;28;20143;-69
2022/10/20 02:43:58;;;;;;;13.18;6.40;;;7.70;99.90;;;;;;4974100;28;20039;-69
2022/10/20 02:46:24;;;;;;;11.27;7.10;;;7.60;99.90;;;;;;4973388;28;20089;-69
2022/10/20 02:48:49;;;;;;;12.70;6.95;;;7.60;99.90;;;;;;4973011;28;20532;-69
2022/10/20 02:51:16;;;;;;;9.18;6.78;;;7.60;99.90;;;;;;4973362;28;20527;-68
2022/10/20 02:53:42;;;;;;;13.10;7.10;;;7.50;99.90;;;;;;4956473;28;20047;-68
2022/10/20 02:56:08;;;;;;;11.20;6.43;;;7.50;99.90;;;;;;4956825;28;20093;-69
2022/10/20 02:58:33;;;;;;;10.43;6.85;;;7.60;99.90;;;;;;4972782;28;20050;-69
2022/10/20 03:00:59;;;;;;;10.43;6.57;;;7.60;99.90;;;;;;4972897;28;20082;-69
2022/10/20 03:03:24;;;;;;;12.20;6.32;;;7.60;99.90;;;;;;4996948;23;20129;-70
2022/10/20 03:05:50;;;;;;;10.45;6.88;;;7.60;99.90;;;;;;5009733;28;20081;-67
2022/10/20 03:08:15;;;;;;;12.45;8.38;;;7.60;99.90;;;;;;5013116;28;20042;-67
2022/10/20 03:10:41;;;;;;;13.45;7.63;;;7.60;99.90;;;;;;5012850;28;20476;-66
2022/10/20 03:13:07;;;;;;;11.90;8.00;;;7.50;99.90;;;;;;5012480;28;20046;-67
2022/10/20 03:15:33;;;;;;;10.88;7.40;;;7.50;99.90;;;;;;5012841;28;20412;-67
2022/10/20 03:17:58;;;;;;;16.60;7.85;;;7.50;99.90;;;;;;5012686;28;20045;-67
2022/10/20 03:20:24;;;;;;;8.23;6.70;;;7.50;99.90;;;;;;5012861;28;20053;-67
2022/10/20 03:22:49;;;;;;;11.57;7.22;;;7.50;99.90;;;;;;5012507;28;20038;-67
2022/10/20 03:25:15;;;;;;;13.13;7.28;;;7.40;99.90;;;;;;5012609;28;20623;-67
2022/10/20 03:27:41;;;;;;;16.20;7.40;;;7.30;99.90;;;;;;5012235;28;20029;-67
2022/10/20 03:30:07;;;;;;;11.30;7.35;;;7.50;99.90;;;;;;5012631;28;20073;-67
2022/10/20 03:32:32;;;;;;;13.02;8.27;;;7.40;99.90;;;;;;5012126;28;20051;-67
2022/10/20 03:34:58;;;;;;;14.85;8.25;;;7.30;99.90;;;;;;5012384;28;20046;-67
2022/10/20 03:37:23;;;;;;;11.68;7.22;;;7.30;99.90;;;;;;5012575;28;20045;-67
2022/10/20 03:39:49;;;;;;;14.90;8.63;;;7.40;99.90;;;;;;5012593;28;20040;-67
2022/10/20 03:42:15;;;;;;;11.63;8.38;;;7.30;99.90;;;;;;5012032;28;20056;-67
2022/10/20 03:44:43;;;;;;;15.02;9.05;;;7.40;99.90;;;;;;5011051;28;20038;-67
2022/10/20 03:47:10;;;;;;;15.27;9.90;;;7.30;99.90;;;;;;5012243;28;20038;-67
2022/10/20 03:49:36;;;;;;;14.73;8.85;;;7.40;99.90;;;;;;5012481;28;20030;-69
2022/10/20 03:52:03;;;;;;;12.98;8.88;;;7.30;99.90;;;;;;5012426;28;20080;-69
2022/10/20 03:54:28;;;;;;;14.93;9.57;;;7.30;99.90;;;;;;5011997;28;20088;-69
2022/10/20 03:56:54;;;;;;;15.07;9.38;;;7.40;99.90;;;;;;5012324;28;20046;-69
2022/10/20 03:59:19;;;;;;;22.73;8.93;;;7.30;99.90;;;;;;5012129;28;20099;-69
2022/10/20 04:01:46;;;;;;;13.32;8.95;;;7.30;99.90;;;;;;5012017;28;20038;-69
2022/10/20 04:04:11;;;;;;;16.17;9.30;;;7.30;99.90;;;;;;5011689;28;20092;-69
2022/10/20 04:06:37;;;;;;;13.98;9.38;;;7.30;99.90;;;;;;5012028;28;20034;-69
2022/10/20 04:09:03;;;;;;;14.77;9.25;;;7.40;99.90;;;;;;5012124;28;20081;-69
2022/10/20 04:11:30;;;;;;;14.07;9.80;;;7.20;99.90;;;;;;5011964;28;20680;-69
2022/10/20 04:13:55;;;;;;;14.30;9.35;;;7.30;99.90;;;;;;5011654;28;20056;-68
2022/10/20 04:16:21;;;;;;;16.02;9.40;;;7.30;99.90;;;;;;5011183;28;20046;-69
2022/10/20 04:18:46;;;;;;;15.20;10.18;;;7.20;99.90;;;;;;5010737;28;20491;-69
2022/10/20 04:21:12;;;;;;;17.45;10.40;;;7.10;99.90;;;;;;5010714;28;20129;-69
2022/10/20 04:23:37;;;;;;;13.43;9.98;;;7.10;99.90;;;;;;5011500;28;20041;-69
2022/10/20 04:26:08;;;;;;;11.90;9.68;;;7.30;99.90;;;;;;5011858;28;20042;-67
2022/10/20 04:28:34;;;;;;;12.48;9.98;;;7.30;99.90;;;;;;5011861;28;20042;-67
2022/10/20 04:30:59;;;;;;;13.93;10.20;;;7.20;99.90;;;;;;5011650;28;20451;-68
2022/10/20 04:33:25;;;;;;;16.25;9.48;;;7.20;99.90;;;;;;5011654;28;20108;-67
2022/10/20 04:35:58;;;;;;;18.75;9.50;;;7.20;99.90;;;;;;5011868;28;20050;-67
2022/10/20 04:38:23;;;;;;;17.63;10.32;;;7.20;99.90;;;;;;5011995;28;20073;-67
2022/10/20 04:40:56;;;;;;;12.73;9.63;;;7.10;99.90;;;;;;5011606;28;20069;-68
2022/10/20 04:43:22;;;;;;;18.25;10.95;;;7.00;99.90;;;;;;5011349;28;20121;-67
2022/10/20 04:45:48;;;;;;;13.63;10.18;;;7.00;99.90;;;;;;5011656;28;20145;-67
2022/10/20 04:48:14;;;;;;;17.95;10.65;;;7.10;99.90;;;;;;5011865;28;20038;-67
2022/10/20 04:50:40;;;;;;;20.83;11.45;;;7.20;99.90;;;;;;5011596;28;20042;-67
2022/10/20 04:53:06;;;;;;;20.10;11.18;;;7.20;99.90;;;;;;5011358;28;20037;-68
2022/10/20 04:55:32;;;;;;;23.45;12.60;;;7.00;99.90;;;;;;5011549;28;20432;-68
2022/10/20 04:57:57;;;;;;;15.82;10.60;;;7.20;99.90;;;;;;5011463;28;20076;-68
2022/10/20 05:00:23;;;;;;;17.88;10.63;;;7.10;99.90;;;;;;5010359;28;20049;-67
2022/10/20 05:02:48;;;;;;;15.85;10.60;;;7.10;99.90;;;;;;5011268;28;20492;-67
2022/10/20 05:05:14;;;;;;;19.33;10.50;;;7.00;99.90;;;;;;5011368;28;20045;-68
2022/10/20 05:07:39;;;;;;;14.13;10.80;;;7.00;99.90;;;;;;5011515;28;20045;-67
2022/10/20 05:10:05;;;;;;;16.23;11.27;;;7.20;99.90;;;;;;5011359;28;20045;-67
2022/10/20 05:12:31;;;;;;;24.38;11.98;;;7.10;99.90;;;;;;5011027;28;20511;-67
2022/10/20 05:14:56;;;;;;;17.45;11.55;;;7.00;99.90;;;;;;5011269;28;20042;-67
2022/10/20 05:17:22;;;;;;;15.10;11.88;;;7.10;99.90;;;;;;5011505;28;20038;-67
2022/10/20 05:19:47;;;;;;;19.95;12.45;;;7.10;99.90;;;;;;5011649;28;20069;-67
2022/10/20 05:22:13;;;;;;;19.98;11.52;;;7.10;99.90;;;;;;5011208;28;20537;-67
2022/10/20 05:24:39;;;;;;;20.98;12.45;;;6.90;99.90;;;;;;5011153;28;20113;-67
2022/10/20 05:27:04;;;;;;;21.90;11.68;;;6.90;99.90;;;;;;5012167;28;20080;-67
2022/10/20 05:29:30;;;;;;;19.48;11.07;;;7.00;99.90;;;;;;5014663;28;20034;-67
2022/10/20 05:31:55;;;;;;;20.85;13.43;;;7.00;99.90;;;;;;5013594;28;20045;-67
2022/10/20 05:34:21;;;;;;;20.58;12.70;;;7.10;99.90;;;;;;5014408;28;20109;-67
2022/10/20 05:36:46;;;;;;;19.80;11.30;;;7.00;99.90;;;;;;5014845;28;20066;-67
2022/10/20 05:39:12;;;;;;;18.30;12.15;;;7.00;99.90;;;;;;5014537;28;20403;-67
2022/10/20 05:41:38;;;;;;;15.80;11.15;;;7.00;99.90;;;;;;5013272;28;20496;-67
2022/10/20 05:44:04;;;;;;;19.27;12.30;;;6.90;99.90;;;;;;5014035;28;20073;-67
2022/10/20 05:46:32;;;;;;;19.00;12.23;;;6.90;99.90;;;;;;5014701;28;20038;-67
2022/10/20 05:49:00;;;;;;;19.02;13.23;;;6.90;99.90;;;;;;5014324;28;20488;-67
2022/10/20 05:51:28;;;;;;;19.73;12.45;;;7.00;99.90;;;;;;5014496;28;20053;-67
2022/10/20 05:53:55;;;;;;;20.30;12.07;;;7.00;99.90;;;;;;5013968;28;20412;-67
2022/10/20 05:56:21;;;;;;;16.00;11.95;;;6.90;99.90;;;;;;5014184;28;20121;-67
2022/10/20 05:58:47;;;;;;;21.85;12.82;;;7.00;99.90;;;;;;5014517;28;20042;-68
2022/10/20 06:01:25;;;;;;;19.20;12.95;;;7.00;99.90;;;;;;5012919;28;20116;-68
2022/10/20 06:03:56;;;;;;;18.63;12.63;;;6.90;99.90;;;;;;5013904;28;20117;-68
2022/10/20 06:06:25;;;;;;;17.75;12.30;;;6.90;99.90;;;;;;5013993;28;20492;-68
2022/10/20 06:08:51;;;;;;;21.80;12.30;;;6.80;99.90;;;;;;5013931;28;20057;-67
2022/10/20 06:11:17;;;;;;;18.27;12.45;;;7.00;99.90;;;;;;5013963;28;20042;-67
2022/10/20 06:13:43;;;;;;;20.75;12.73;;;6.90;99.90;;;;;;5013869;28;20049;-68
2022/10/20 06:16:11;;;;;;;17.95;12.32;;;6.80;99.90;;;;;;5013918;28;20500;-68
2022/10/20 06:18:41;;;;;;;21.30;12.77;;;6.80;99.90;;;;;;5013863;28;20447;-68
2022/10/20 06:21:19;;;;;;;19.45;13.25;;;7.00;99.90;;;;;;5013729;28;20376;-68
2022/10/20 06:23:44;;;;;;;21.48;15.05;;;7.00;99.90;;;;;;5013201;28;20053;-68
2022/10/20 06:26:13;;;;;;;17.88;12.63;;;6.90;99.90;;;;;;5013750;28;20108;-68
2022/10/20 06:28:39;;;;;;;18.75;12.77;;;6.90;99.90;;;;;;5012688;28;20550;-68
2022/10/20 06:31:20;;;;;;;18.92;12.38;;;6.80;99.90;;;;;;5012370;28;20080;-69
2022/10/20 06:33:46;;;;;;;18.85;13.10;;;6.90;99.90;;;;;;5012094;28;20046;-68
2022/10/20 06:36:12;;;;;;;21.25;14.68;;;6.90;99.90;;;;;;5013421;28;20108;-67
2022/10/20 06:38:39;;;;;;;17.63;13.10;;;6.80;99.90;;;;;;5012907;28;20045;-68
2022/10/20 06:41:06;;;;;;;21.23;13.52;;;6.90;99.90;;;;;;5013510;28;20045;-68
2022/10/20 06:43:32;;;;;;;25.45;12.73;;;6.90;99.90;;;;;;5013180;28;20038;-68
2022/10/20 06:46:03;;;;;;;19.30;12.90;;;6.90;99.90;;;;;;5013402;28;20126;-68
2022/10/20 06:48:28;;;;;;;20.13;12.35;;;7.00;99.90;;;;;;5013279;28;20038;-68
2022/10/20 06:51:03;;;;;;;19.00;12.80;;;7.00;99.90;;;;;;5018216;28;20095;-68
2022/10/20 06:53:29;;;;;;;18.20;12.50;;;7.20;99.90;;;;;;5024348;28;20511;-68
2022/10/20 06:56:07;;;;;;;17.23;12.50;;;7.20;99.90;;;;;;5030102;28;20041;-68
2022/10/20 06:58:35;;;;;;;17.20;12.63;;;7.00;99.90;;;;;;5033002;28;20439;-67
2022/10/20 07:01:04;;;;;;;20.80;14.02;;;7.00;99.90;;;;;;5031459;28;20095;-68
2022/10/20 07:03:30;;;;;;;19.70;13.45;;;7.20;99.90;;;;;;5032528;28;20046;-68
2022/10/20 07:05:56;;;;;;;18.85;13.57;;;7.10;99.90;;;;;;5033082;28;20037;-67
2022/10/20 07:08:22;;;;;;;19.52;12.75;;;7.20;99.90;;;;;;5025692;28;20207;-68
2022/10/20 07:11:04;;;;;;;18.73;12.60;;;7.20;99.90;;;;;;5011717;28;20535;-68
2022/10/20 07:13:30;;;;;;;24.77;13.57;;;7.30;99.90;;;;;;5012414;28;20038;-68
2022/10/20 07:15:57;;;;;;;20.60;12.70;;;7.30;99.90;;;;;;5019597;28;20124;-67
2022/10/20 07:18:24;;;;;;;19.35;12.77;;;7.40;99.90;;;;;;5032689;28;20110;-71
2022/10/20 07:20:50;;;;;;;17.38;12.95;;;7.30;99.90;;;;;;5031301;28;20056;-69
2022/10/20 07:23:16;;;;;;;23.02;14.30;;;7.50;99.90;;;;;;5032258;28;20395;-69
2022/10/20 07:25:41;;;;;;;25.35;14.90;;;7.40;99.90;;;;;;5032474;28;20155;-68
2022/10/20 07:28:07;;;;;;;21.02;12.82;;;7.70;99.90;;;;;;5032247;28;20501;-69
2022/10/20 07:30:42;;;;;;;20.83;12.88;;;7.70;99.90;;;;;;5031101;28;20044;-69
2022/10/20 07:33:08;;;;;;;17.90;12.98;;;7.70;99.90;;;;;;5031997;28;20380;-69
2022/10/20 07:35:35;;;;;;;20.85;12.93;;;7.90;99.90;;;;;;5032365;28;20099;-69
2022/10/20 07:38:01;;;;;;;20.27;12.90;;;7.80;99.90;;;;;;5032150;28;20029;-69
2022/10/20 07:40:26;;;;;;;19.67;13.02;;;7.90;99.90;;;;;;5030613;28;20041;-69
2022/10/20 07:42:53;;;;;;;16.77;12.45;;;7.80;99.90;;;;;;5031934;28;20460;-68
2022/10/20 07:45:18;;;;;;;17.65;12.30;;;7.70;99.90;;;;;;5030886;28;20087;-68
2022/10/20 07:47:44;;;;;;;21.50;13.20;;;7.70;99.90;;;;;;5032086;28;20487;-68
2022/10/20 07:50:11;;;;;;;19.48;12.75;;;7.80;99.90;;;;;;5030604;28;20045;-69
2022/10/20 07:52:38;;;;;;;20.08;12.82;;;7.90;99.90;;;;;;5031654;28;20041;-68
2022/10/20 07:55:04;;;;;;;18.02;12.38;;;7.70;99.90;;;;;;5030395;28;20041;-69
2022/10/20 07:57:30;;;;;;;18.45;12.48;;;7.80;99.90;;;;;;5022011;28;20073;-69
2022/10/20 07:59:56;;;;;;;19.92;12.73;;;7.90;99.90;;;;;;5020860;28;20520;-68
2022/10/20 08:02:22;;;;;;;23.25;12.95;;;7.80;99.90;;;;;;5022999;28;20038;-69
2022/10/20 08:04:48;;;;;;;22.08;12.38;;;7.80;99.90;;;;;;5031739;28;20117;-69
2022/10/20 08:07:14;;;;;;;19.70;12.93;;;7.90;99.90;;;;;;5031778;28;20048;-69
2022/10/20 08:09:39;;;;;;;15.10;11.32;;;7.80;99.90;;;;;;5031586;28;20041;-68
2022/10/20 08:12:05;;;;;;;19.58;12.73;;;7.90;99.90;;;;;;5031747;28;20042;-68
2022/10/20 08:14:32;;;;;;;17.33;12.35;;;7.90;99.90;;;;;;5031328;28;20074;-68
2022/10/20 08:16:58;;;;;;;17.85;11.98;;;8.00;99.90;;;;;;5031674;28;20052;-68
2022/10/20 08:19:25;;;;;;;17.35;12.32;;;8.10;99.90;;;;;;5031555;28;20076;-68
2022/10/20 08:21:50;;;;;;;20.73;12.50;;;8.10;99.90;;;;;;5031569;28;20519;-68
2022/10/20 08:24:16;;;;;;;16.83;11.82;;;8.20;99.90;;;;;;5031135;28;20034;-68
2022/10/20 08:26:41;;;;;;;16.48;12.00;;;8.30;99.90;;;;;;5030132;28;20388;-69
2022/10/20 08:29:08;;;;;;;16.95;11.65;;;8.30;99.90;;;;;;5030167;28;20040;-68
2022/10/20 08:31:34;;;;;;;19.23;12.88;;;8.30;99.90;;;;;;5031358;28;20045;-69
2022/10/20 08:33:59;;;;;;;16.83;11.57;;;8.40;99.90;;;;;;5029819;28;20099;-70
2022/10/20 08:36:27;;;;;;;19.55;11.85;;;8.50;99.90;;;;;;5031502;28;20117;-69
2022/10/20 08:38:53;;;;;;;16.35;11.63;;;8.50;99.90;;;;;;5031257;28;20179;-70
2022/10/20 08:41:35;;;;;;;18.15;11.65;;;8.60;99.90;;;;;;5031876;28;20045;-69
2022/10/20 08:44:02;;;;;;;18.40;10.75;;;8.70;99.90;;;;;;5031291;28;20049;-68
2022/10/20 08:46:32;;;;;;;14.65;10.90;;;8.60;99.90;;;;;;5029996;28;20048;-68
2022/10/20 08:48:57;;;;;;;20.73;11.15;;;8.70;99.90;;;;;;5030347;28;20029;-68
2022/10/20 08:51:27;;;;;;;16.10;11.40;;;8.80;99.90;;;;;;5031242;28;20158;-68
2022/10/20 08:53:55;;;;;;;17.92;10.82;;;8.80;99.90;;;;;;5031126;28;20090;-68
2022/10/20 08:56:26;;;;;;;14.43;10.85;;;9.00;99.90;;;;;;5021619;28;20034;-68
2022/10/20 08:58:52;;;;;;;17.58;11.05;;;9.00;99.90;;;;;;5007534;28;20504;-69
2022/10/20 09:01:24;;;;;;;13.93;9.50;;;9.10;99.90;;;;;;5011303;28;20045;-70
2022/10/20 09:03:55;;;;;;;17.73;11.00;;;9.20;99.90;;;;;;5014562;28;20103;-69
2022/10/20 09:06:21;;;;;;;14.70;10.15;;;9.20;99.90;;;;;;5014162;28;20048;-69
2022/10/20 09:08:47;;;;;;;15.60;10.57;;;9.30;99.90;;;;;;5015141;28;20041;-69
2022/10/20 09:11:17;;;;;;;15.60;9.55;;;9.30;99.90;;;;;;5015160;28;20037;-69
2022/10/20 09:13:43;;;;;;;14.50;9.60;;;9.40;99.90;;;;;;5014680;28;20127;-70
2022/10/20 09:16:28;;;;;;;15.52;10.65;;;9.50;99.90;;;;;;5014924;28;20369;-69
2022/10/20 09:18:59;;;;;;;15.30;9.57;;;9.60;99.90;;;;;;5013631;28;20116;-68
2022/10/20 09:21:25;;;;;;;13.43;9.40;;;9.70;99.90;;;;;;5013644;28;20045;-69
2022/10/20 09:23:54;;;;;;;14.02;10.27;;;9.70;99.90;;;;;;5014556;28;20045;-70
2022/10/20 09:26:35;;;;;;;12.77;9.20;;;9.80;99.90;;;;;;5014863;28;20053;-67
2022/10/20 09:29:11;;;;;;;11.63;9.40;;;9.90;99.90;;;;;;5002510;28;20073;-67
2022/10/20 09:31:40;;;;;;;15.13;9.32;;;10.00;99.90;;;;;;4995024;28;20042;-68
2022/10/20 09:34:30;;;;;;;13.48;8.45;;;10.10;99.90;;;;;;4998510;28;20046;-69
2022/10/20 09:37:08;;;;;;;10.52;8.43;;;10.20;99.90;;;;;;4993465;28;20057;-69
2022/10/20 09:39:55;;;;;;;12.70;9.15;;;10.20;99.90;;;;;;4994537;28;20129;-69
2022/10/20 09:42:30;;;;;;;13.38;8.77;;;10.30;99.90;;;;;;5009099;28;20132;-68
2022/10/20 09:45:11;;;;;;;13.13;8.38;;;10.40;99.90;;;;;;5014092;28;20065;-69
2022/10/20 09:47:42;;;;;;;15.85;9.05;;;10.30;99.90;;;;;;4995948;28;20093;-69
2022/10/20 09:50:18;;;;;;;15.95;8.68;;;10.40;99.90;;;;;;4994414;28;20538;-69
2022/10/20 09:52:46;;;;;;;11.52;8.63;;;10.50;99.90;;;;;;4992423;28;20108;-68
2022/10/20 09:55:25;;;;;;;13.07;8.40;;;10.60;99.90;;;;;;5008549;28;20060;-68
2022/10/20 09:57:53;;;;;;;12.15;8.10;;;10.50;99.90;;;;;;5017413;28;20550;-69
2022/10/20 10:00:29;;;;;;;11.75;8.55;;;10.60;99.90;;;;;;5015810;28;20032;-69
2022/10/20 10:03:21;;;;;;;10.05;7.60;;;10.60;99.90;;;;;;5011439;28;20050;-68
2022/10/20 10:05:56;;;;;;;11.60;7.75;;;10.70;99.90;;;;;;5014315;28;20579;-68
2022/10/20 10:08:25;;;;;;;13.15;8.70;;;10.80;99.90;;;;;;4995246;28;20061;-68
2022/10/20 10:11:03;;;;;;;11.23;7.95;;;10.80;99.90;;;;;;4992890;28;20042;-69
2022/10/20 10:13:35;;;;;;;9.68;8.27;;;10.80;99.90;;;;;;4999322;28;20524;-69
2022/10/20 10:16:07;;;;;;;10.95;8.32;;;10.80;99.90;;;;;;5007140;28;20074;-68
2022/10/20 10:18:34;;;;;;;15.60;8.43;;;10.90;99.90;;;;;;5003802;28;20125;-69
2022/10/20 10:21:10;;;;;;;15.60;8.05;;;10.90;99.90;;;;;;5012031;28;20049;-68
2022/10/20 10:23:49;;;;;;;12.93;8.35;;;11.00;99.90;;;;;;4994815;28;20069;-68
2022/10/20 10:26:41;;;;;;;8.70;7.70;;;11.00;99.90;;;;;;4993969;28;20038;-70
2022/10/20 10:29:22;;;;;;;11.38;8.60;;;11.10;99.90;;;;;;5006013;28;20062;-69
2022/10/20 10:32:11;;;;;;;10.23;8.02;;;11.20;99.90;;;;;;4996016;28;20057;-69
2022/10/20 10:34:54;;;;;;;13.68;8.23;;;11.20;99.90;;;;;;5013219;28;20049;-69
2022/10/20 10:37:20;;;;;;;11.95;9.05;;;11.30;99.90;;;;;;5012044;28;20049;-68
2022/10/20 10:39:46;;;;;;;11.05;8.07;;;11.30;99.90;;;;;;5013093;28;20117;-68
2022/10/20 10:42:36;;;;;;;11.88;8.52;;;11.40;99.90;;;;;;5013216;28;20038;-68
2022/10/20 10:45:17;;;;;;;9.80;7.75;;;11.40;99.90;;;;;;5011134;28;20513;-68
2022/10/20 10:48:01;;;;;;;12.30;8.15;;;11.50;99.90;;;;;;5018620;28;20156;-68
2022/10/20 10:50:48;;;;;;;13.43;8.75;;;11.50;99.90;;;;;;5008490;28;20492;-68
2022/10/20 10:53:23;;;;;;;12.18;8.00;;;11.50;99.90;;;;;;4993168;28;20100;-68
2022/10/20 10:56:02;;;;;;;10.38;8.07;;;11.60;99.90;;;;;;4993417;28;20053;-67
2022/10/20 10:59:10;;;;;;;10.43;7.60;;;11.60;99.90;;;;;;4993188;28;20038;-69
2022/10/20 11:01:38;;;;;;;13.35;7.82;;;11.70;99.90;;;;;;4993305;28;20050;-69
2022/10/20 11:04:31;;;;;;;14.35;8.60;;;11.70;99.90;;;;;;4992754;28;20042;-69
2022/10/20 11:07:07;;;;;;;10.07;7.85;;;11.80;99.90;;;;;;4991657;28;20049;-69
2022/10/20 11:10:00;;;;;;;10.60;8.18;;;12.00;99.90;;;;;;5006906;28;20091;-69
2022/10/20 11:12:44;;;;;;;11.93;8.23;;;12.10;99.90;;;;;;5014058;28;20042;-70
2022/10/20 11:15:37;;;;;;;9.13;8.15;;;12.10;99.90;;;;;;5017536;28;20606;-69
2022/10/20 11:18:16;;;;;;;18.52;8.23;;;12.20;99.90;;;;;;5012658;28;20074;-69
2022/10/20 11:21:24;;;;;;;10.88;7.85;;;12.30;99.90;;;;;;4997379;28;20050;-69
2022/10/20 11:24:20;;;;;;;10.48;7.95;;;12.30;99.90;;;;;;4991172;28;20050;-69
2022/10/20 11:26:52;;;;;;;15.45;8.93;;;12.40;99.90;;;;;;4992621;28;20050;-69
2022/10/20 11:30:03;;;;;;;11.32;9.00;;;12.40;99.90;;;;;;5005182;28;20045;-69
2022/10/20 11:32:33;;;;;;;13.10;8.73;;;12.50;99.90;;;;;;5011841;28;20526;-69
2022/10/20 11:35:39;;;;;;;12.85;7.95;;;12.50;99.90;;;;;;5011229;28;20135;-69
2022/10/20 11:38:31;;;;;;;19.05;8.98;;;12.50;99.90;;;;;;4954626;28;20046;-69
2022/10/20 11:41:15;;;;;;;11.45;9.15;;;12.50;99.90;;;;;;4958678;28;20054;-69
2022/10/20 11:43:58;;;;;;;9.55;8.25;;;12.50;99.90;;;;;;4987611;28;20054;-69
2022/10/20 11:46:44;;;;;;;15.35;8.65;;;12.70;99.90;;;;;;4991345;28;20042;-69
2022/10/20 11:49:12;;;;;;;14.25;8.57;;;12.70;99.90;;;;;;5007320;28;20475;-69
2022/10/20 11:51:50;;;;;;;12.55;7.78;;;12.70;99.90;;;;;;4975406;28;20100;-69
2022/10/20 11:54:38;;;;;;;12.32;8.43;;;12.80;99.90;;;;;;4992255;28;20100;-69
2022/10/20 11:57:32;;;;;;;10.95;8.30;;;12.80;99.90;;;;;;4991287;28;20050;-69
2022/10/20 12:00:20;;;;;;;10.40;8.50;;;12.80;99.90;;;;;;4992540;28;20137;-70
2022/10/20 12:03:12;;;;;;;13.57;8.45;;;12.80;99.90;;;;;;4992182;28;20046;-69
2022/10/20 12:06:01;;;;;;;10.52;8.40;;;12.80;99.90;;;;;;4992211;28;20038;-69
2022/10/20 12:08:46;;;;;;;10.13;8.32;;;12.80;99.90;;;;;;4992452;28;20500;-70
2022/10/20 12:11:30;;;;;;;14.68;10.23;;;12.80;99.90;;;;;;4992431;28;20456;-69
2022/10/20 12:14:11;;;;;;;14.20;9.73;;;12.80;99.90;;;;;;4992069;28;20551;-70
2022/10/20 12:16:54;;;;;;;20.15;10.27;;;12.80;99.90;;;;;;4992483;28;20073;-70
2022/10/20 12:19:25;;;;;;;13.35;9.05;;;12.80;99.90;;;;;;4991234;28;20092;-69
2022/10/20 12:22:13;;;;;;;14.07;9.27;;;12.80;99.90;;;;;;4992056;28;20038;-69
2022/10/20 12:24:53;;;;;;;12.88;9.73;;;12.70;99.90;;;;;;4991761;28;20505;-69
2022/10/20 12:27:23;;;;;;;17.75;9.45;;;12.80;99.90;;;;;;4991093;28;20042;-69
2022/10/20 12:30:10;;;;;;;12.65;8.45;;;12.80;99.90;;;;;;4992142;28;20038;-69
2022/10/20 12:32:53;;;;;;;14.15;8.95;;;12.80;99.90;;;;;;4970944;28;20050;-69
2022/10/20 12:35:19;;;;;;;12.50;9.80;;;12.80;99.90;;;;;;4992189;28;20077;-69
2022/10/20 12:38:01;;;;;;;11.13;9.63;;;12.90;99.90;;;;;;5005118;28;20077;-70
2022/10/20 12:40:33;;;;;;;15.07;9.85;;;12.90;99.90;;;;;;5015796;28;20435;-70
2022/10/20 12:42:59;;;;;;;10.73;9.18;;;12.80;99.90;;;;;;5014876;28;20072;-70
2022/10/20 12:45:36;;;;;;;14.25;10.15;;;12.90;99.90;;;;;;5025162;28;20399;-70
2022/10/20 12:48:03;;;;;;;13.27;9.70;;;12.80;99.90;;;;;;5021214;28;20046;-70
2022/10/20 12:50:44;;;;;;;10.63;8.65;;;12.80;99.90;;;;;;5024277;28;20033;-70
2022/10/20 12:53:17;;;;;;;12.80;9.02;;;12.80;99.90;;;;;;5022821;28;20042;-69
2022/10/20 12:55:52;;;;;;;11.32;9.35;;;12.80;99.90;;;;;;5022834;28;20049;-70
2022/10/20 12:58:18;;;;;;;13.40;10.23;;;12.80;99.90;;;;;;5021423;28;20121;-70
2022/10/20 13:00:46;;;;;;;15.63;10.55;;;12.80;99.90;;;;;;5025882;28;20180;-69
2022/10/20 13:03:30;;;;;;;13.05;9.45;;;12.70;99.90;;;;;;5018163;28;20038;-70